Thurso, Canada
Current Conditions -  °F | °C
As of 9:00 PM on Monday 20 Oct 2014 (Local Time) from CYND Reporting Station
Light Rain Light Rain  
Wind Chill: 33°   Ceiling: 1500
Heat Index: 39°   Visibility: 15mi
Dew Point: 37°   Wind: 9mph
Humidity: 93%   Direction: 60°ENE
Pressure: 29.92"   Gusts: NA
Location:  45.58°N, 75.23°W
Report Text: CYND 210100Z 06008KT 15SM -RA OVC015 04/03 A2992 RMK SC8 LAST OBS/NEXT 211100 UTC SLP135
Loading
Personal Weather Stations






























Interactive Weather Map New forecast layout! Learn more

10-Day Weather Forecast

Advertisements
Track Severe Weather on mobile